Time;durP1;ratioP1;P1;durP2;ratioP2;P2;SDS_P1;SDS_P2;PMS_P1;PMS_P2;Temp;Humidity;BMP_temperature;BMP_pressure;BME280_temperature;BME280_humidity;BME280_pressure;Samples;Min_cycle;Max_cycle;Signal;HPM_P1;HPM_P2
2021/06/04 00:00:31;;;;;;;22.80;14.80;;;;;;;15.89;87.00;100879.34;8886602;33;20187;-71
2021/06/04 00:05:42;;;;;;;18.92;13.65;;;;;;;15.88;86.93;100874.94;8884771;33;20225;-72
2021/06/04 00:10:49;;;;;;;20.80;14.95;;;;;;;15.82;86.88;100868.22;8894178;33;20678;-73
2021/06/04 00:15:57;;;;;;;21.23;14.88;;;;;;;15.83;87.17;100877.22;8885236;33;20213;-72
2021/06/04 00:21:04;;;;;;;18.42;13.45;;;;;;;15.77;86.96;100875.06;8885213;33;20197;-71
2021/06/04 00:26:09;;;;;;;18.55;14.10;;;;;;;15.81;86.78;100882.78;8884984;33;20202;-72
2021/06/04 00:31:13;;;;;;;18.23;12.82;;;;;;;15.79;86.80;100871.22;8885293;33;20175;-72
2021/06/04 00:36:16;;;;;;;18.27;13.43;;;;;;;15.73;86.35;100871.81;8884670;33;20206;-71
2021/06/04 00:41:25;;;;;;;18.25;12.90;;;;;;;15.74;86.53;100867.25;8884964;33;20206;-71
2021/06/04 00:46:30;;;;;;;18.25;12.38;;;;;;;15.74;86.90;100861.84;8884712;33;20210;-71
2021/06/04 00:51:37;;;;;;;21.30;13.48;;;;;;;15.70;86.87;100853.16;8860050;33;20179;-71
2021/06/04 00:56:47;;;;;;;17.15;12.32;;;;;;;15.67;86.97;100857.00;8859475;33;20210;-71
2021/06/04 01:01:54;;;;;;;15.52;11.88;;;;;;;15.65;86.73;100852.72;8860325;33;20220;-71
2021/06/04 01:07:05;;;;;;;19.92;13.30;;;;;;;15.67;86.88;100848.88;8858655;33;20210;-72
2021/06/04 01:12:32;;;;;;;23.25;12.93;;;;;;;15.70;86.98;100840.47;8883699;33;20163;-71
2021/06/04 01:17:46;;;;;;;23.15;14.35;;;;;;;15.64;86.41;100842.91;8883577;33;20267;-71
2021/06/04 01:23:08;;;;;;;19.08;13.27;;;;;;;15.46;86.15;100851.75;8883896;33;20202;-70
2021/06/04 01:28:20;;;;;;;18.65;13.07;;;;;;;15.46;86.61;100857.19;8888431;33;20347;-72
2021/06/04 01:33:30;;;;;;;17.15;12.50;;;;;;;15.50;86.77;100855.06;8888603;33;20183;-71
2021/06/04 01:38:38;;;;;;;22.80;14.32;;;;;;;15.36;86.01;100858.19;8863003;33;20309;-72
2021/06/04 01:43:49;;;;;;;18.83;13.20;;;;;;;15.20;85.95;100856.06;8863215;33;20228;-70
2021/06/04 01:48:54;;;;;;;18.02;13.02;;;;;;;15.21;86.57;100855.03;8887672;33;20706;-72
2021/06/04 01:54:06;;;;;;;18.98;13.00;;;;;;;15.20;86.76;100866.88;8886730;33;20190;-70
2021/06/04 01:59:18;;;;;;;20.27;13.25;;;;;;;15.22;86.72;100864.88;8862977;33;20722;-71
2021/06/04 02:04:30;;;;;;;20.85;14.88;;;;;;;15.29;86.59;100863.31;8886845;33;20214;-71
2021/06/04 02:09:33;;;;;;;16.02;12.15;;;;;;;15.22;86.55;100862.16;8887729;33;20198;-71
2021/06/04 02:14:52;;;;;;;20.02;13.40;;;;;;;15.10;86.40;100866.88;8886143;33;20197;-72
2021/06/04 02:20:16;;;;;;;19.35;13.10;;;;;;;15.09;86.60;100873.28;8886763;33;20194;-71
2021/06/04 02:25:45;;;;;;;19.65;14.07;;;;;;;15.04;86.08;100875.56;8886828;33;20621;-70
2021/06/04 02:31:03;;;;;;;17.48;12.60;;;;;;;14.77;85.77;100879.78;8887267;33;20183;-72
2021/06/04 02:36:12;;;;;;;23.95;15.23;;;;;;;14.86;86.54;100885.34;8886232;33;20284;-72
2021/06/04 02:41:21;;;;;;;22.83;15.32;;;;;;;14.99;86.57;100884.09;8862148;33;20206;-71
2021/06/04 02:46:30;;;;;;;19.02;14.27;;;;;;;14.99;86.38;100881.38;8885585;33;20222;-72
2021/06/04 02:51:38;;;;;;;21.08;14.18;;;;;;;14.96;86.15;100883.53;8862612;33;20186;-72
2021/06/04 02:56:45;;;;;;;22.52;14.25;;;;;;;14.95;86.41;100884.53;8885420;33;20261;-71
2021/06/04 03:01:55;;;;;;;20.20;14.10;;;;;;;14.99;86.64;100888.66;8886285;33;20206;-72
2021/06/04 03:07:04;;;;;;;19.48;14.25;;;;;;;15.00;86.43;100891.22;8885768;33;20207;-72
2021/06/04 03:12:14;;;;;;;18.20;13.48;;;;;;;15.03;86.68;100906.31;8885322;33;20698;-72
2021/06/04 03:17:21;;;;;;;21.38;14.50;;;;;;;14.94;86.10;100885.50;8860873;33;20233;-70
2021/06/04 03:22:30;;;;;;;20.33;14.05;;;;;;;14.97;86.22;100886.06;8868866;33;20589;-72
2021/06/04 03:27:35;;;;;;;20.08;13.60;;;;;;;14.83;85.69;100887.34;8885183;33;20210;-71
2021/06/04 03:32:39;;;;;;;19.48;14.13;;;;;;;14.76;86.46;100896.16;8886282;33;20678;-72
2021/06/04 03:37:43;;;;;;;22.00;15.88;;;;;;;14.73;85.97;100889.19;8860674;33;20789;-71
2021/06/04 03:42:50;;;;;;;32.05;18.27;;;;;;;14.57;86.13;100891.56;8884618;33;20222;-72
2021/06/04 03:47:54;;;;;;;29.90;19.50;;;;;;;14.76;86.65;100899.72;8884425;33;20218;-71
2021/06/04 03:52:58;;;;;;;29.80;18.38;;;;;;;14.91;86.55;100900.16;8885325;33;20181;-71
2021/06/04 03:58:01;;;;;;;26.48;17.83;;;;;;;15.04;86.49;100898.03;8884813;33;20213;-72
2021/06/04 04:03:07;;;;;;;25.77;18.10;;;;;;;15.21;86.87;100910.03;8884951;33;20601;-72
2021/06/04 04:08:15;;;;;;;30.67;19.23;;;;;;;15.31;86.83;100906.47;8884683;33;20199;-71
2021/06/04 04:13:20;;;;;;;26.92;19.40;;;;;;;15.44;86.87;100915.16;8884840;33;20167;-70
2021/06/04 04:18:25;;;;;;;25.67;17.45;;;;;;;15.48;86.41;100916.59;8884283;33;20202;-71
2021/06/04 04:23:34;;;;;;;26.42;18.13;;;;;;;15.68;86.62;100925.56;8884631;33;20634;-72
2021/06/04 04:28:41;;;;;;;24.27;17.08;;;;;;;15.79;86.72;100924.53;8883935;33;20363;-70
2021/06/04 04:33:45;;;;;;;26.80;16.88;;;;;;;15.86;86.71;100928.41;8884658;33;20179;-72
2021/06/04 04:38:50;;;;;;;26.38;16.58;;;;;;;15.95;86.62;100935.63;8884558;33;20203;-72
2021/06/04 04:43:55;;;;;;;23.58;16.65;;;;;;;15.92;86.55;100934.06;8885559;33;20215;-72
2021/06/04 04:49:00;;;;;;;22.60;15.88;;;;;;;15.89;86.50;100920.81;8884971;33;20213;-72
2021/06/04 04:54:05;;;;;;;22.35;16.70;;;;;;;15.91;86.57;100921.53;8885258;33;20182;-72
2021/06/04 04:59:09;;;;;;;26.70;17.42;;;;;;;15.94;86.63;100928.53;8890161;33;20217;-72
2021/06/04 05:04:13;;;;;;;24.65;16.77;;;;;;;15.98;86.54;100927.22;8894199;33;20194;-72
2021/06/04 05:09:16;;;;;;;25.05;17.35;;;;;;;16.04;86.55;100931.19;8894764;33;20198;-73
2021/06/04 05:14:19;;;;;;;26.15;18.95;;;;;;;16.22;86.96;100939.41;8894235;33;20163;-73
2021/06/04 05:19:23;;;;;;;25.90;17.83;;;;;;;16.40;87.09;100943.09;8894236;33;20217;-73
2021/06/04 05:24:27;;;;;;;26.15;18.08;;;;;;;16.54;87.20;100942.63;8894262;33;20202;-73
2021/06/04 05:29:29;;;;;;;9.65;7.10;;;;;;;16.65;87.00;100944.28;8893077;33;20695;-73
2021/06/04 05:34:33;;;;;;;10.88;8.48;;;;;;;16.82;86.87;100937.19;8893579;33;20175;-73
2021/06/04 05:39:36;;;;;;;17.73;13.70;;;;;;;16.88;86.44;100954.72;8894125;33;20721;-73
2021/06/04 05:44:42;;;;;;;14.80;10.88;;;;;;;16.87;86.84;100951.16;8893480;33;20729;-72
2021/06/04 05:49:46;;;;;;;20.58;15.23;;;;;;;16.90;86.10;100950.84;8893712;33;20281;-73
2021/06/04 05:54:50;;;;;;;18.83;13.95;;;;;;;16.96;86.52;100949.38;8893313;33;20679;-73
2021/06/04 05:59:53;;;;;;;22.98;16.52;;;;;;;17.21;87.27;100940.50;8893669;33;20198;-73
2021/06/04 06:04:57;;;;;;;18.38;14.98;;;;;;;17.32;86.60;100950.28;8893072;33;20198;-73
2021/06/04 06:09:59;;;;;;;20.27;14.65;;;;;;;17.46;86.90;100957.03;8890526;33;20587;-73
2021/06/04 06:15:03;;;;;;;10.52;9.43;;;;;;;17.70;87.13;100956.41;8888185;33;20214;-73
2021/06/04 06:20:10;;;;;;;14.07;11.02;;;;;;;18.01;87.16;100965.00;8863633;33;20652;-73
2021/06/04 06:25:17;;;;;;;16.15;12.27;;;;;;;18.07;86.45;100974.38;8887504;33;20218;-73
2021/06/04 06:30:25;;;;;;;20.10;15.00;;;;;;;18.15;86.45;100985.31;8888145;33;20182;-73
2021/06/04 06:35:34;;;;;;;13.00;9.40;;;;;;;18.26;86.59;100986.91;8887553;33;20713;-72
2021/06/04 06:40:39;;;;;;;21.50;15.52;;;;;;;18.65;86.36;100989.16;8899354;32;20171;-72
2021/06/04 06:45:42;;;;;;;22.00;15.35;;;;;;;18.82;86.11;100987.44;8874809;27;20225;-71
2021/06/04 06:50:47;;;;;;;16.25;12.48;;;;;;;18.83;85.26;100991.84;8793486;33;20184;-71
2021/06/04 06:55:51;;;;;;;21.95;16.90;;;;;;;18.99;85.09;100986.47;8827493;33;20206;-71
2021/06/04 07:00:56;;;;;;;21.38;16.05;;;;;;;19.29;84.93;100984.16;8827827;33;20179;-72
2021/06/04 07:06:05;;;;;;;21.80;15.27;;;;;;;19.47;83.65;100990.31;8827536;33;20211;-73
2021/06/04 07:11:08;;;;;;;20.50;15.93;;;;;;;19.69;84.38;100988.81;8827729;33;20183;-72
2021/06/04 07:16:12;;;;;;;22.00;15.35;;;;;;;20.02;85.33;100991.53;8826971;33;20199;-72
2021/06/04 07:21:16;;;;;;;21.10;15.82;;;;;;;19.86;81.69;101000.63;8826404;33;20210;-72
2021/06/04 07:26:19;;;;;;;21.98;16.52;;;;;;;20.14;80.83;101001.09;8802158;33;20223;-71
2021/06/04 07:31:22;;;;;;;23.02;15.57;;;;;;;20.89;84.29;101002.63;8827697;33;20405;-71
2021/06/04 07:36:31;;;;;;;24.58;15.57;;;;;;;21.21;78.96;100996.19;8826862;33;20722;-71
2021/06/04 07:41:34;;;;;;;23.58;17.38;;;;;;;21.48;82.26;101000.28;8826941;33;20168;-72
2021/06/04 07:46:37;;;;;;;20.17;16.05;;;;;;;22.18;83.20;100996.47;8826302;33;20215;-72
2021/06/04 07:51:46;;;;;;;20.95;15.95;;;;;;;22.87;81.27;100988.00;8826779;33;20267;-72
2021/06/04 07:56:48;;;;;;;17.95;15.40;;;;;;;22.48;73.44;100993.81;8826514;33;20199;-72
2021/06/04 08:01:52;;;;;;;20.10;15.73;;;;;;;23.06;77.38;100994.78;8826509;33;20194;-72
2021/06/04 08:06:56;;;;;;;21.00;15.20;;;;;;;24.06;73.72;100990.41;8826126;33;20590;-72
2021/06/04 08:12:04;;;;;;;19.15;14.43;;;;;;;24.53;75.40;100988.84;8826396;33;20671;-72
2021/06/04 08:17:06;;;;;;;18.35;15.00;;;;;;;24.01;65.59;100988.25;8825847;33;20294;-73
2021/06/04 08:22:12;;;;;;;16.77;14.23;;;;;;;23.69;61.93;100994.25;8826051;33;20179;-72
2021/06/04 08:27:17;;;;;;;18.55;15.82;;;;;;;23.95;70.45;101004.66;8825659;33;20718;-72
2021/06/04 08:32:20;;;;;;;21.52;15.98;;;;;;;23.46;69.32;101009.00;8825779;33;20179;-71
2021/06/04 08:37:24;;;;;;;21.90;16.83;;;;;;;23.75;63.41;101009.91;8825594;33;20706;-72
2021/06/04 08:42:39;;;;;;;21.77;17.27;;;;;;;24.31;65.50;101015.50;8826231;33;20195;-72
2021/06/04 08:47:49;;;;;;;21.10;15.40;;;;;;;24.76;68.79;101018.75;8825924;33;20218;-72
2021/06/04 08:53:10;;;;;;;19.02;15.63;;;;;;;24.97;65.60;101006.81;8826195;33;20672;-72
2021/06/04 08:58:40;;;;;;;21.83;17.23;;;;;;;24.80;62.17;101013.72;8825000;33;20210;-71
2021/06/04 09:03:48;;;;;;;21.52;16.42;;;;;;;24.48;62.00;101016.06;8824904;33;20215;-71
2021/06/04 09:08:53;;;;;;;17.50;15.63;;;;;;;23.88;59.24;101023.78;8827667;33;20195;-71
2021/06/04 09:13:55;;;;;;;23.70;17.20;;;;;;;24.83;59.60;101007.81;8825731;33;20187;-71
2021/06/04 09:19:07;;;;;;;19.45;15.07;;;;;;;25.61;59.42;101013.81;8825521;33;20202;-71
2021/06/04 09:24:16;;;;;;;21.98;17.05;;;;;;;25.04;57.76;101016.00;8825122;33;20191;-70
2021/06/04 09:29:24;;;;;;;22.58;17.98;;;;;;;24.01;60.58;101017.56;8825259;33;20191;-70
2021/06/04 09:34:34;;;;;;;30.05;19.73;;;;;;;23.51;60.49;101014.75;8824852;33;20234;-70
2021/06/04 09:39:44;;;;;;;23.63;19.45;;;;;;;24.81;60.22;101005.28;8825003;33;20265;-70
2021/06/04 09:44:58;;;;;;;26.92;18.00;;;;;;;25.77;54.03;101007.09;8825940;33;20218;-70
2021/06/04 09:50:23;;;;;;;21.98;16.08;;;;;;;26.14;52.30;101013.91;8805280;33;20231;-71
2021/06/04 09:55:30;;;;;;;22.98;16.77;;;;;;;26.70;50.45;101001.53;8829065;33;20802;-71
2021/06/04 10:00:38;;;;;;;24.35;17.55;;;;;;;27.38;48.73;101003.84;8805091;33;20191;-71
2021/06/04 10:05:41;;;;;;;20.98;17.25;;;;;;;27.37;46.34;101000.22;8828940;33;20211;-72
2021/06/04 10:10:45;;;;;;;21.90;16.55;;;;;;;27.59;46.51;100989.72;8829218;33;20171;-72
2021/06/04 10:15:52;;;;;;;24.83;18.77;;;;;;;28.34;46.73;100997.19;8828521;33;20199;-72
2021/06/04 10:21:13;;;;;;;24.45;17.13;;;;;;;29.74;43.51;100992.72;8828983;33;20175;-72
2021/06/04 10:26:24;;;;;;;23.92;18.50;;;;;;;29.63;42.28;100983.28;8828271;33;20222;-72
2021/06/04 10:31:43;;;;;;;23.40;19.63;;;;;;;28.54;43.24;100982.34;8828910;33;20190;-72
2021/06/04 10:36:55;;;;;;;25.95;18.38;;;;;;;29.43;41.83;100989.09;8828266;33;20582;-72
2021/06/04 10:42:23;;;;;;;20.60;16.40;;;;;;;29.18;44.76;100980.09;8828619;33;20175;-72
2021/06/04 10:47:37;;;;;;;23.25;18.15;;;;;;;29.59;41.99;100980.13;8803143;33;20229;-72
2021/06/04 10:53:00;;;;;;;24.30;18.27;;;;;;;30.64;40.11;100972.16;8828375;33;20204;-72
2021/06/04 10:58:20;;;;;;;26.73;19.92;;;;;;;29.82;41.46;100964.69;8827833;33;20214;-72
2021/06/04 11:03:34;;;;;;;25.38;20.40;;;;;;;30.98;41.02;100972.31;8828924;33;20218;-72
2021/06/04 11:09:07;;;;;;;23.73;19.67;;;;;;;29.97;42.22;100975.28;8832082;33;20357;-71
2021/06/04 11:14:38;;;;;;;23.30;17.73;;;;;;;30.15;41.97;100963.28;8827601;33;20175;-71
2021/06/04 11:19:47;;;;;;;19.48;16.75;;;;;;;30.71;40.47;100955.41;8827698;33;20695;-71
2021/06/04 11:25:00;;;;;;;21.17;16.60;;;;;;;30.83;39.30;100951.53;8802594;33;20615;-72
2021/06/04 11:30:09;;;;;;;18.92;15.38;;;;;;;28.77;42.91;100956.78;8827936;33;20188;-71
2021/06/04 11:35:20;;;;;;;18.38;15.85;;;;;;;28.57;44.44;100952.31;8827280;33;20602;-71
2021/06/04 11:40:30;;;;;;;19.10;14.40;;;;;;;28.67;43.33;100960.09;8826893;33;20695;-72
2021/06/04 11:45:37;;;;;;;17.83;15.93;;;;;;;28.84;41.10;100952.00;8826271;33;20565;-71
2021/06/04 11:50:39;;;;;;;21.30;16.15;;;;;;;30.67;40.88;100938.44;8826859;33;20163;-72
2021/06/04 11:55:43;;;;;;;19.83;16.88;;;;;;;31.77;38.75;100937.19;8826096;33;20207;-72
2021/06/04 12:00:48;;;;;;;18.38;16.08;;;;;;;31.49;39.77;100928.94;8826716;33;20615;-72
2021/06/04 12:05:55;;;;;;;18.38;14.63;;;;;;;31.81;39.17;100917.25;8825918;33;20207;-72
2021/06/04 12:11:06;;;;;;;16.55;13.23;;;;;;;31.77;39.42;100917.75;8826073;33;20591;-72
2021/06/04 12:16:33;;;;;;;17.83;14.73;;;;;;;29.15;41.26;100913.13;8825751;33;20761;-72
2021/06/04 12:21:57;;;;;;;17.33;15.27;;;;;;;29.95;39.49;100906.31;8821164;33;20210;-71
2021/06/04 12:27:03;;;;;;;17.17;13.85;;;;;;;29.50;42.09;100898.50;8825507;33;20206;-72
2021/06/04 12:32:10;;;;;;;18.02;14.70;;;;;;;31.84;37.31;100889.81;8825007;33;20187;-72
2021/06/04 12:37:30;;;;;;;17.88;14.93;;;;;;;31.29;37.60;100877.53;8824906;33;20619;-72
2021/06/04 12:42:48;;;;;;;15.88;13.70;;;;;;;29.95;38.91;100888.81;8825398;33;20179;-71
2021/06/04 12:47:56;;;;;;;14.77;12.90;;;;;;;30.40;39.57;100882.66;8824868;33;20209;-72
2021/06/04 12:53:25;;;;;;;15.45;13.07;;;;;;;30.51;38.59;100865.16;8824963;33;20183;-72
2021/06/04 12:58:31;;;;;;;18.67;14.07;;;;;;;30.76;37.83;100870.41;8824632;33;20218;-72
2021/06/04 13:03:42;;;;;;;18.00;12.85;;;;;;;31.93;39.44;100871.63;8800135;33;20206;-71
2021/06/04 13:08:48;;;;;;;15.13;12.30;;;;;;;32.82;36.98;100872.53;8824235;33;20210;-71
2021/06/04 13:13:51;;;;;;;15.63;12.50;;;;;;;31.87;37.30;100869.88;8825173;33;20175;-71
2021/06/04 13:19:00;;;;;;;12.13;10.75;;;;;;;32.63;36.55;100864.50;8825831;33;20207;-71
2021/06/04 13:24:11;;;;;;;15.57;11.57;;;;;;;33.99;33.40;100862.44;8828993;33;20609;-71
2021/06/04 13:29:26;;;;;;;12.95;10.00;;;;;;;34.66;32.23;100853.56;8829720;33;20202;-71
2021/06/04 13:34:37;;;;;;;11.68;10.43;;;;;;;33.30;32.34;100852.16;8829134;33;20194;-72
2021/06/04 13:39:40;;;;;;;15.10;10.82;;;;;;;32.53;33.48;100856.06;8829310;33;20217;-72
2021/06/04 13:44:47;;;;;;;10.93;9.73;;;;;;;33.68;33.51;100839.13;8828811;33;20197;-71
2021/06/04 13:49:52;;;;;;;11.35;10.07;;;;;;;34.42;30.98;100823.31;8829051;33;20848;-71
2021/06/04 13:54:57;;;;;;;12.40;9.82;;;;;;;33.83;33.11;100831.97;8828919;33;20183;-71
2021/06/04 14:00:17;;;;;;;12.27;10.02;;;;;;;34.16;31.72;100826.03;8828772;33;20202;-72
2021/06/04 14:05:27;;;;;;;12.88;10.80;;;;;;;34.04;33.30;100810.59;8828158;33;20233;-72
2021/06/04 14:10:49;;;;;;;11.07;9.88;;;;;;;34.39;32.19;100807.16;8828704;33;20186;-71
2021/06/04 14:16:02;;;;;;;14.02;10.05;;;;;;;35.07;29.99;100805.09;8828099;33;20213;-71
2021/06/04 14:21:42;;;;;;;11.82;10.07;;;;;;;32.36;34.74;100805.25;8828554;33;20297;-71
2021/06/04 14:26:49;;;;;;;12.90;10.20;;;;;;;33.48;33.08;100797.16;8725209;33;20225;-71
2021/06/04 14:31:57;;;;;;;12.50;10.30;;;;;;;33.29;33.08;100797.59;8828345;33;20321;-71
2021/06/04 14:37:05;;;;;;;11.02;9.90;;;;;;;34.54;31.80;100784.91;8827777;33;20257;-72
2021/06/04 14:42:10;;;;;;;11.32;10.20;;;;;;;34.87;31.49;100771.59;8828232;33;20160;-72
2021/06/04 14:47:19;;;;;;;12.63;11.30;;;;;;;35.38;31.83;100773.53;8828215;33;20211;-72
2021/06/04 14:52:25;;;;;;;11.68;10.48;;;;;;;35.59;30.88;100761.22;8828143;33;20250;-72
2021/06/04 14:57:27;;;;;;;12.00;10.10;;;;;;;35.17;32.10;100765.19;8827362;33;20202;-72
2021/06/04 15:02:30;;;;;;;13.63;11.13;;;;;;;35.21;30.92;100745.91;8828175;33;20758;-73
2021/06/04 15:07:38;;;;;;;12.65;10.52;;;;;;;35.33;32.29;100753.97;8827566;33;20225;-72
2021/06/04 15:12:42;;;;;;;12.40;11.15;;;;;;;34.64;31.60;100739.47;8827415;33;20671;-72
2021/06/04 15:17:46;;;;;;;14.68;10.02;;;;;;;34.82;31.98;100736.13;8827181;33;20203;-72
2021/06/04 15:22:51;;;;;;;9.55;8.65;;;;;;;35.52;31.03;100730.81;8828051;33;20194;-72
2021/06/04 15:27:53;;;;;;;11.90;10.13;;;;;;;35.27;31.26;100722.44;8826749;33;20214;-71
2021/06/04 15:32:58;;;;;;;14.73;9.93;;;;;;;34.04;32.76;100722.28;8802643;33;20643;-71
2021/06/04 15:38:03;;;;;;;10.68;9.55;;;;;;;32.55;34.69;100730.66;8826671;33;20610;-71
2021/06/04 15:43:06;;;;;;;10.60;9.23;;;;;;;31.98;36.06;100724.47;8826002;33;20182;-71
2021/06/04 15:48:10;;;;;;;10.15;9.10;;;;;;;32.99;33.62;100731.34;8826466;33;20203;-71
2021/06/04 15:53:17;;;;;;;10.45;9.40;;;;;;;34.17;31.29;100732.97;8826753;33;20588;-71
2021/06/04 15:58:19;;;;;;;12.07;10.38;;;;;;;33.73;32.54;100732.44;8826280;33;20518;-71
2021/06/04 16:03:22;;;;;;;12.40;9.07;;;;;;;34.46;31.83;100729.66;8826345;33;20183;-71
2021/06/04 16:08:26;;;;;;;10.40;8.88;;;;;;;35.70;29.88;100720.97;8801298;33;20202;-71
2021/06/04 16:13:28;;;;;;;10.57;9.52;;;;;;;35.69;29.92;100724.88;8826104;33;20187;-71
2021/06/04 16:18:31;;;;;;;12.68;11.20;;;;;;;34.66;32.25;100716.88;8825184;33;20191;-72
2021/06/04 16:23:35;;;;;;;13.57;12.02;;;;;;;34.30;32.50;100725.16;8825585;33;20179;-72
2021/06/04 16:28:39;;;;;;;11.90;10.70;;;;;;;34.98;32.03;100725.81;8825135;33;20221;-72
2021/06/04 16:33:44;;;;;;;12.07;9.98;;;;;;;36.86;29.30;100718.94;8800847;33;20195;-71
2021/06/04 16:38:48;;;;;;;11.32;9.52;;;;;;;39.22;25.79;100723.13;8825085;33;20206;-72
2021/06/04 16:43:51;;;;;;;13.90;10.90;;;;;;;38.38;26.38;100723.13;8825338;33;20183;-72
2021/06/04 16:48:54;;;;;;;10.90;9.52;;;;;;;33.07;32.46;100739.22;8825976;33;20206;-71
2021/06/04 16:53:58;;;;;;;9.13;8.23;;;;;;;31.55;35.22;100733.59;8824763;33;20190;-70
2021/06/04 16:59:00;;;;;;;11.20;9.55;;;;;;;34.28;31.81;100727.38;8825084;33;20206;-72
2021/06/04 17:04:04;;;;;;;11.07;8.55;;;;;;;35.30;29.64;100714.38;8824731;33;20683;-72
2021/06/04 17:09:08;;;;;;;9.95;9.05;;;;;;;32.63;33.41;100713.50;8824839;33;20222;-71
2021/06/04 17:14:11;;;;;;;10.68;8.98;;;;;;;30.98;36.44;100717.16;8824275;33;20675;-71
2021/06/04 17:19:16;;;;;;;11.10;9.98;;;;;;;29.94;38.52;100723.75;8824696;33;20199;-72
2021/06/04 17:24:20;;;;;;;10.65;9.60;;;;;;;29.86;38.22;100724.16;8823965;33;20601;-71
2021/06/04 17:29:23;;;;;;;11.05;9.85;;;;;;;29.63;39.11;100725.06;8824210;33;20692;-71
2021/06/04 17:34:26;;;;;;;13.50;11.05;;;;;;;30.92;37.83;100724.56;8823861;33;20179;-72
2021/06/04 17:39:30;;;;;;;11.70;10.05;;;;;;;29.99;39.21;100715.56;8824358;33;20203;-72
2021/06/04 17:44:33;;;;;;;11.27;10.10;;;;;;;28.82;41.94;100722.78;8823934;33;20199;-72
2021/06/04 17:49:36;;;;;;;10.98;9.88;;;;;;;28.28;42.59;100717.22;8823861;33;20222;-72
2021/06/04 17:54:40;;;;;;;12.55;11.25;;;;;;;27.98;43.97;100711.69;8823653;33;20180;-71
2021/06/04 17:59:43;;;;;;;12.38;9.98;;;;;;;28.08;43.96;100705.59;8824261;33;20718;-72
2021/06/04 18:04:46;;;;;;;11.27;10.15;;;;;;;27.81;43.89;100713.31;8824055;33;20317;-71
2021/06/04 18:09:52;;;;;;;10.82;9.70;;;;;;;27.39;44.89;100715.91;8828757;33;20207;-70
2021/06/04 18:14:54;;;;;;;15.00;11.98;;;;;;;26.94;45.86;100721.63;8828637;33;20168;-71
2021/06/04 18:19:57;;;;;;;12.48;11.18;;;;;;;26.74;47.11;100721.72;8828600;33;20218;-71
2021/06/04 18:25:01;;;;;;;13.77;11.13;;;;;;;26.61;47.47;100727.38;8828245;33;20200;-71
2021/06/04 18:30:07;;;;;;;12.77;11.48;;;;;;;26.26;48.96;100725.03;8828241;33;20459;-72
2021/06/04 18:35:13;;;;;;;13.55;12.15;;;;;;;25.68;50.42;100733.28;8827973;33;20640;-70
2021/06/04 18:40:22;;;;;;;15.10;11.38;;;;;;;25.22;52.27;100742.44;8828251;33;20584;-71
2021/06/04 18:50:36;;;;;;;13.32;11.80;;;;;;;24.88;54.13;100739.66;8597534;34;20226;-75
2021/06/04 18:55:43;;;;;;;13.70;11.63;;;;;;;24.65;54.64;100729.03;8578254;34;20202;-75
2021/06/04 19:00:49;;;;;;;12.80;11.35;;;;;;;24.59;55.03;100731.78;8654843;34;20178;-74
2021/06/04 19:05:52;;;;;;;13.10;11.77;;;;;;;24.56;55.61;100721.22;8653624;34;20244;-73
2021/06/04 19:10:56;;;;;;;13.85;10.88;;;;;;;24.55;55.51;100723.13;8654204;34;20182;-75
2021/06/04 19:16:00;;;;;;;12.35;11.05;;;;;;;24.25;56.73;100730.84;8653681;34;20213;-75
2021/06/04 19:21:03;;;;;;;12.77;11.13;;;;;;;23.84;57.52;100740.81;8654657;34;20193;-75
2021/06/04 19:26:08;;;;;;;11.98;10.77;;;;;;;24.07;57.57;100743.22;8653945;34;20718;-75
2021/06/04 19:31:11;;;;;;;15.13;10.57;;;;;;;24.12;58.35;100737.13;8653805;34;20193;-75
2021/06/04 19:36:19;;;;;;;12.05;10.80;;;;;;;24.01;58.73;100730.31;8630149;34;20209;-75
2021/06/04 19:41:26;;;;;;;11.77;10.45;;;;;;;23.65;59.97;100739.63;8653890;34;20178;-75
2021/06/04 19:46:30;;;;;;;13.10;11.25;;;;;;;23.59;60.07;100745.91;8653272;34;20213;-75
2021/06/04 19:51:38;;;;;;;11.65;10.45;;;;;;;23.54;60.14;100750.31;8653753;34;20182;-75
2021/06/04 19:56:44;;;;;;;13.20;11.30;;;;;;;23.52;60.63;100755.13;8653227;34;20205;-75
2021/06/04 20:01:48;;;;;;;12.32;11.13;;;;;;;23.46;60.00;100761.44;8654106;34;20181;-75
2021/06/04 20:06:51;;;;;;;14.02;11.13;;;;;;;23.41;60.03;100762.03;8653453;34;20267;-75
2021/06/04 20:11:55;;;;;;;12.85;9.70;;;;;;;23.43;59.74;100768.16;8653307;34;20174;-75
2021/06/04 20:16:58;;;;;;;12.15;10.23;;;;;;;23.38;58.76;100770.66;8652747;34;20229;-74
2021/06/04 20:22:00;;;;;;;11.40;10.15;;;;;;;23.35;59.08;100765.56;8652793;34;20581;-74
2021/06/04 20:27:05;;;;;;;10.38;8.73;;;;;;;23.24;58.88;100757.91;8651862;34;20224;-75
2021/06/04 20:32:09;;;;;;;9.90;8.73;;;;;;;23.17;59.09;100757.81;8652839;34;20186;-75
2021/06/04 20:37:11;;;;;;;10.25;9.23;;;;;;;23.00;59.32;100762.72;8628219;34;20549;-74
2021/06/04 20:42:18;;;;;;;9.35;8.38;;;;;;;22.89;58.11;100760.50;8652631;34;20205;-75
2021/06/04 20:47:21;;;;;;;8.95;8.05;;;;;;;22.94;58.01;100752.56;8651536;34;20222;-75
2021/06/04 20:52:24;;;;;;;8.68;7.03;;;;;;;22.85;56.88;100749.09;8629005;34;20698;-74
2021/06/04 20:57:28;;;;;;;5.78;5.18;;;;;;;22.74;55.46;100747.75;8651043;34;20209;-75
2021/06/04 21:02:30;;;;;;;7.65;5.90;;;;;;;22.67;55.28;100745.97;8651878;34;20260;-75
2021/06/04 21:07:34;;;;;;;6.68;6.00;;;;;;;22.56;55.35;100752.81;8651347;34;20214;-75
2021/06/04 21:12:38;;;;;;;8.70;6.40;;;;;;;22.43;57.06;100742.56;8652628;34;20178;-74
2021/06/04 21:17:41;;;;;;;8.63;6.75;;;;;;;22.32;57.08;100752.13;8652262;34;20209;-75
2021/06/04 21:22:45;;;;;;;8.13;6.88;;;;;;;22.34;56.70;100757.38;8651012;34;20186;-74
2021/06/04 21:27:49;;;;;;;8.63;7.53;;;;;;;22.31;56.72;100752.28;8650246;34;20213;-75
2021/06/04 21:32:54;;;;;;;8.90;7.25;;;;;;;22.26;56.83;100755.59;8650934;34;20233;-74
2021/06/04 21:37:58;;;;;;;11.07;7.82;;;;;;;22.11;57.13;100760.28;8650194;34;20560;-75
2021/06/04 21:43:04;;;;;;;8.68;6.90;;;;;;;22.07;56.88;100746.09;8630548;34;20190;-75
2021/06/04 21:48:08;;;;;;;8.90;6.90;;;;;;;22.01;57.92;100733.19;8655366;34;20302;-75
2021/06/04 21:53:13;;;;;;;8.85;7.07;;;;;;;21.80;59.08;100738.59;8655881;34;20704;-74
2021/06/04 21:58:18;;;;;;;7.72;6.82;;;;;;;21.53;59.68;100734.59;8656022;34;20596;-75
2021/06/04 22:03:25;;;;;;;11.60;8.10;;;;;;;21.18;61.05;100723.38;8655980;34;20193;-74
2021/06/04 22:08:29;;;;;;;10.82;8.07;;;;;;;20.77;61.54;100731.91;8654043;34;20217;-74
2021/06/04 22:13:34;;;;;;;9.48;7.60;;;;;;;20.38;62.67;100727.41;8654624;34;20193;-74
2021/06/04 22:18:36;;;;;;;10.20;8.57;;;;;;;20.11;64.08;100736.91;8654018;34;20709;-75
2021/06/04 22:23:39;;;;;;;11.27;8.00;;;;;;;20.26;63.43;100726.94;8654698;34;20182;-74
2021/06/04 22:28:48;;;;;;;8.40;7.60;;;;;;;20.61;62.93;100718.38;8630476;34;20734;-75
2021/06/04 22:33:51;;;;;;;10.75;8.23;;;;;;;20.86;62.24;100721.75;8654415;34;20555;-74
2021/06/04 22:38:53;;;;;;;9.93;8.35;;;;;;;20.90;61.81;100720.34;8654031;34;20690;-75
2021/06/04 22:43:58;;;;;;;7.88;6.85;;;;;;;20.71;61.70;100716.25;8654251;34;20185;-74
2021/06/04 22:49:00;;;;;;;8.73;7.20;;;;;;;20.73;61.64;100728.69;8654403;34;20694;-75
2021/06/04 22:54:06;;;;;;;10.55;8.90;;;;;;;20.76;62.11;100727.47;8653182;34;20618;-75
2021/06/04 22:59:10;;;;;;;11.55;8.25;;;;;;;20.69;62.00;100716.44;8654275;34;20246;-74
2021/06/04 23:04:13;;;;;;;13.48;10.32;;;;;;;20.71;62.60;100710.81;8653966;34;20189;-74
2021/06/04 23:09:19;;;;;;;11.57;9.65;;;;;;;20.66;62.04;100705.88;8653556;34;20587;-74
2021/06/04 23:14:23;;;;;;;11.05;8.68;;;;;;;20.59;62.24;100707.63;8632392;34;20266;-75
2021/06/04 23:19:26;;;;;;;10.68;8.18;;;;;;;20.58;62.77;100697.75;8655766;34;20213;-74
2021/06/04 23:24:29;;;;;;;15.45;11.27;;;;;;;20.57;63.39;100701.53;8652735;34;20290;-75